createdAt,value
2018-08-19T00:02:25.363Z,2.30
2018-08-19T00:05:05.995Z,2.30
2018-08-19T00:07:35.770Z,2.20
2018-08-19T00:10:06.263Z,2.30
2018-08-19T00:12:43.602Z,2.33
2018-08-19T00:15:13.558Z,2.33
2018-08-19T00:17:43.380Z,2.03
2018-08-19T00:20:13.898Z,2.43
2018-08-19T00:22:43.684Z,2.20
2018-08-19T00:25:23.443Z,2.10
2018-08-19T00:27:53.131Z,1.90
2018-08-19T00:30:22.788Z,2.23
2018-08-19T00:32:52.460Z,2.10
2018-08-19T00:35:22.253Z,2.47
2018-08-19T00:37:51.955Z,1.90
2018-08-19T00:40:22.142Z,2.07
2018-08-19T00:42:51.855Z,1.90
2018-08-19T00:45:21.549Z,2.20
2018-08-19T00:47:51.286Z,2.50
2018-08-19T00:50:24.069Z,1.90
2018-08-19T00:52:54.476Z,2.20
2018-08-19T00:55:24.726Z,2.50
2018-08-19T00:57:58.375Z,2.03
2018-08-19T01:00:29.463Z,2.00
2018-08-19T01:02:59.171Z,2.30
2018-08-19T01:05:28.828Z,2.53
2018-08-19T01:07:58.536Z,2.20
2018-08-19T01:10:28.255Z,2.20
2018-08-19T01:12:57.996Z,2.63
2018-08-19T01:15:27.664Z,2.37
2018-08-19T01:17:58.379Z,2.30
2018-08-19T01:20:28.215Z,2.20
2018-08-19T01:22:57.887Z,2.60
2018-08-19T01:25:27.603Z,2.40
2018-08-19T01:27:57.403Z,2.60
2018-08-19T01:30:27.469Z,2.40
2018-08-19T01:32:57.165Z,2.70
2018-08-19T01:35:32.679Z,2.40
2018-08-19T01:38:02.379Z,2.40
2018-08-19T01:40:32.071Z,2.23
2018-08-19T01:43:01.787Z,2.47
2018-08-19T01:45:31.499Z,2.40
2018-08-19T01:48:01.205Z,2.30
2018-08-19T01:50:30.920Z,2.50
2018-08-19T01:53:00.590Z,2.43
2018-08-19T01:55:31.605Z,2.60
2018-08-19T01:58:01.367Z,2.60
2018-08-19T02:00:31.072Z,3.00
2018-08-19T02:03:05.603Z,2.67
2018-08-19T02:05:35.323Z,2.37
2018-08-19T02:08:05.597Z,2.60
2018-08-19T02:10:35.791Z,3.00
2018-08-19T02:13:05.599Z,2.80
2018-08-19T02:15:35.332Z,2.47
2018-08-19T02:18:05.784Z,2.50
2018-08-19T02:20:40.714Z,2.93
2018-08-19T02:23:12.561Z,3.00
2018-08-19T02:25:45.329Z,2.70
2018-08-19T02:28:17.971Z,2.87
2018-08-19T02:30:53.398Z,2.67
2018-08-19T02:33:24.018Z,2.77
2018-08-19T02:36:01.895Z,2.80
2018-08-19T02:38:31.908Z,2.60
2018-08-19T02:41:01.651Z,2.43
2018-08-19T02:43:31.340Z,2.73
2018-08-19T02:46:01.042Z,2.40
2018-08-19T02:48:44.809Z,2.40
2018-08-19T02:51:17.648Z,2.90
2018-08-19T02:53:49.357Z,2.57
2018-08-19T02:56:19.846Z,2.43
2018-08-19T02:58:49.780Z,2.90
2018-08-19T03:01:19.580Z,2.67
2018-08-19T03:03:49.253Z,2.73
2018-08-19T03:06:18.995Z,2.50
2018-08-19T03:08:59.805Z,2.97
2018-08-19T03:11:29.489Z,3.00
2018-08-19T03:13:59.169Z,2.80
2018-08-19T03:16:28.839Z,3.03
2018-08-19T03:18:58.527Z,2.77
2018-08-19T03:21:28.207Z,3.33
2018-08-19T03:23:58.294Z,2.97
2018-08-19T03:26:29.355Z,2.87
2018-08-19T03:29:02.284Z,3.20
2018-08-19T03:31:31.972Z,2.90
2018-08-19T03:34:01.634Z,2.70
2018-08-19T03:36:31.400Z,3.10
2018-08-19T03:39:13.092Z,2.90
2018-08-19T03:41:42.813Z,2.90
2018-08-19T03:44:12.455Z,3.47
2018-08-19T03:46:42.176Z,3.03
2018-08-19T03:49:11.844Z,2.60
2018-08-19T03:51:42.315Z,3.40
2018-08-19T03:54:11.980Z,2.90
2018-08-19T03:56:41.657Z,3.13
2018-08-19T03:59:12.837Z,2.93
2018-08-19T04:01:44.008Z,2.77
2018-08-19T04:04:15.987Z,3.10
2018-08-19T04:06:45.692Z,3.20
2018-08-19T04:09:15.347Z,3.50
2018-08-19T04:11:49.968Z,3.33
2018-08-19T04:14:27.581Z,3.20
2018-08-19T04:17:01.341Z,3.30
2018-08-19T04:19:31.251Z,3.20
2018-08-19T04:22:02.908Z,3.33
2018-08-19T04:24:33.137Z,3.47
2018-08-19T04:27:05.578Z,3.40
2018-08-19T04:29:35.612Z,3.80
2018-08-19T04:32:06.323Z,3.70
2018-08-19T04:34:35.988Z,3.40
2018-08-19T04:37:05.691Z,3.40
2018-08-19T04:39:35.328Z,3.57
2018-08-19T04:42:05.099Z,3.37
2018-08-19T04:44:34.773Z,3.30
2018-08-19T04:47:19.721Z,3.30
2018-08-19T04:49:50.777Z,3.23
2018-08-19T04:52:22.212Z,3.50
2018-08-19T04:54:53.000Z,3.30
2018-08-19T04:57:22.765Z,2.97
2018-08-19T04:59:52.475Z,3.00
2018-08-19T05:02:22.349Z,3.80
2018-08-19T05:04:52.004Z,3.47
2018-08-19T05:07:21.679Z,3.40
2018-08-19T05:09:51.356Z,3.27
2018-08-19T05:12:21.004Z,3.03
2018-08-19T05:14:50.733Z,3.37
2018-08-19T05:17:20.388Z,3.07
2018-08-19T05:19:50.580Z,3.90
2018-08-19T05:22:20.419Z,3.43
2018-08-19T05:24:50.283Z,3.27
2018-08-19T05:27:19.949Z,3.70
2018-08-19T05:29:49.653Z,3.30
2018-08-19T05:32:19.384Z,3.50
2018-08-19T05:34:49.071Z,3.80
2018-08-19T05:37:18.792Z,3.93
2018-08-19T05:40:03.673Z,3.83
2018-08-19T05:42:33.379Z,3.80
2018-08-19T05:45:03.088Z,3.70
2018-08-19T05:47:32.771Z,3.67
2018-08-19T05:50:02.453Z,3.37
2018-08-19T05:52:32.479Z,3.60
2018-08-19T05:55:02.157Z,4.07
2018-08-19T05:57:33.267Z,4.50
2018-08-19T06:00:08.232Z,4.00
2018-08-19T06:02:42.909Z,3.90
2018-08-19T06:05:12.706Z,3.40
2018-08-19T06:07:42.605Z,4.27
2018-08-19T06:10:12.214Z,4.30
2018-08-19T06:12:41.902Z,4.43
2018-08-19T06:15:11.635Z,4.30
2018-08-19T06:17:41.326Z,4.70
2018-08-19T06:20:11.042Z,4.07
2018-08-19T06:22:41.517Z,4.30
2018-08-19T06:25:12.139Z,3.97
2018-08-19T06:27:45.868Z,3.60
2018-08-19T06:30:16.444Z,4.23
2018-08-19T06:32:46.276Z,3.70
2018-08-19T06:35:16.278Z,4.10
2018-08-19T06:37:46.011Z,4.23
2018-08-19T06:40:19.276Z,3.93
2018-08-19T06:42:49.009Z,4.37
2018-08-19T06:45:18.761Z,4.07
2018-08-19T06:47:48.712Z,3.87
2018-08-19T06:50:25.476Z,3.67
2018-08-19T06:52:55.923Z,3.93
2018-08-19T06:55:25.763Z,3.50
2018-08-19T06:57:57.290Z,4.40
2018-08-19T07:00:31.168Z,3.63
2018-08-19T07:03:02.161Z,4.90
2018-08-19T07:05:32.593Z,4.80
2018-08-19T07:08:02.607Z,5.30
2018-08-19T07:10:36.383Z,4.10
2018-08-19T07:13:09.488Z,3.70
2018-08-19T07:15:40.569Z,4.20
2018-08-19T07:18:12.915Z,4.30
2018-08-19T07:20:43.336Z,4.27
2018-08-19T07:23:13.446Z,4.67
2018-08-19T07:25:44.414Z,4.77
2018-08-19T07:28:15.689Z,3.43
2018-08-19T07:30:45.427Z,5.20
2018-08-19T07:33:15.368Z,6.40
2018-08-19T07:35:45.047Z,5.90
2018-08-19T07:38:14.814Z,5.70
2018-08-19T07:40:44.512Z,6.17
2018-08-19T07:43:14.236Z,5.50
2018-08-19T07:45:43.930Z,6.67
2018-08-19T07:48:13.677Z,5.13
2018-08-19T07:50:43.420Z,5.30
2018-08-19T07:53:13.104Z,5.87
2018-08-19T07:55:42.842Z,6.00
2018-08-19T07:58:12.535Z,5.83
2018-08-19T08:00:42.432Z,5.90
2018-08-19T08:03:12.109Z,6.97
2018-08-19T08:05:48.107Z,5.20
2018-08-19T08:08:17.787Z,5.83
2018-08-19T08:10:47.518Z,5.50
2018-08-19T08:13:17.324Z,5.43
2018-08-19T08:15:51.972Z,5.80
2018-08-19T08:18:21.697Z,5.67
2018-08-19T08:20:59.368Z,5.27
2018-08-19T08:23:29.931Z,5.60
2018-08-19T08:25:59.659Z,5.83
2018-08-19T08:28:29.328Z,5.25
2018-08-19T08:30:59.089Z,5.40
2018-08-19T08:33:28.795Z,4.83
2018-08-19T08:35:59.128Z,5.22
2018-08-19T08:38:28.804Z,4.10
2018-08-19T08:40:58.542Z,5.30
2018-08-19T08:43:28.218Z,5.37
2018-08-19T08:45:58.429Z,4.90
2018-08-19T08:48:28.674Z,4.10
2018-08-19T08:50:58.369Z,4.47
2018-08-19T08:53:32.288Z,4.50
2018-08-19T08:56:01.996Z,4.20
2018-08-19T08:58:32.387Z,3.80
2018-08-19T09:01:02.103Z,3.80
2018-08-19T09:03:31.871Z,4.80
2018-08-19T09:06:01.551Z,3.50
2018-08-19T09:08:31.338Z,4.05
2018-08-19T09:11:02.999Z,3.67
2018-08-19T09:13:32.811Z,3.92
2018-08-19T09:16:02.463Z,3.50
2018-08-19T09:18:32.153Z,3.95
2018-08-19T09:21:01.830Z,3.27
2018-08-19T09:23:31.564Z,2.85
2018-08-19T09:26:01.212Z,3.98
2018-08-19T09:28:30.916Z,3.33
2018-08-19T09:31:00.584Z,3.22
2018-08-19T09:33:30.290Z,2.83
2018-08-19T09:35:59.955Z,3.00
2018-08-19T09:38:29.648Z,2.65
2018-08-19T09:40:59.385Z,3.22
2018-08-19T09:43:29.092Z,2.80
2018-08-19T09:45:58.843Z,3.22
2018-08-19T09:48:28.551Z,2.50
2018-08-19T09:51:02.327Z,2.92
2018-08-19T09:53:32.216Z,2.60
2018-08-19T09:56:06.948Z,2.50
2018-08-19T09:58:36.675Z,2.27
2018-08-19T10:01:11.809Z,2.22
2018-08-19T10:03:41.852Z,2.10
2018-08-19T10:06:11.508Z,2.60
2018-08-19T10:08:41.244Z,2.50
2018-08-19T10:11:10.938Z,2.25
2018-08-19T10:13:40.632Z,2.60
2018-08-19T10:16:10.362Z,2.02
2018-08-19T10:18:40.016Z,2.10
2018-08-19T10:21:13.793Z,2.10
2018-08-19T10:23:43.426Z,1.77
2018-08-19T10:26:13.100Z,2.02
2018-08-19T10:28:42.748Z,2.02
2018-08-19T10:31:17.798Z,2.00
2018-08-19T10:33:49.399Z,2.40
2018-08-19T10:36:19.096Z,2.33
2018-08-19T10:38:48.749Z,1.85
2018-08-19T10:41:18.538Z,2.20
2018-08-19T10:43:48.552Z,1.85
2018-08-19T10:46:18.260Z,2.00
2018-08-19T10:48:47.951Z,2.20
2018-08-19T10:51:17.611Z,2.50
2018-08-19T10:53:47.356Z,2.15
2018-08-19T10:56:17.073Z,1.87
2018-08-19T10:58:50.901Z,1.80
2018-08-19T11:01:21.715Z,1.70
2018-08-19T11:03:51.444Z,1.72
2018-08-19T11:06:21.099Z,2.17
2018-08-19T11:08:55.912Z,1.80
2018-08-19T11:11:27.383Z,1.87
2018-08-19T11:13:57.076Z,1.90
2018-08-19T11:16:26.736Z,1.80
2018-08-19T11:18:56.436Z,1.80
2018-08-19T11:21:31.162Z,1.62
2018-08-19T11:24:00.827Z,1.95
2018-08-19T11:26:30.543Z,1.60
2018-08-19T11:29:00.544Z,1.80
2018-08-19T11:31:32.478Z,1.80
2018-08-19T11:34:08.017Z,1.92
2018-08-19T11:36:44.577Z,1.90
2018-08-19T11:39:17.207Z,1.37
2018-08-19T11:41:46.940Z,1.72
2018-08-19T11:44:17.855Z,1.65
2018-08-19T11:46:47.565Z,1.47
2018-08-19T11:49:18.475Z,1.47
2018-08-19T11:51:50.958Z,1.52
2018-08-19T11:54:21.513Z,1.60
2018-08-19T11:57:11.345Z,1.47
2018-08-19T11:59:43.868Z,1.57
2018-08-19T12:02:17.986Z,1.80
2018-08-19T12:04:48.098Z,1.62
2018-08-19T12:07:18.256Z,1.67
2018-08-19T12:09:55.021Z,1.60
2018-08-19T12:12:52.350Z,1.47
2018-08-19T12:15:22.055Z,1.72
2018-08-19T12:17:51.704Z,1.10
2018-08-19T12:20:26.480Z,1.22
2018-08-19T12:22:56.163Z,1.50
2018-08-19T12:25:25.818Z,1.27
2018-08-19T12:27:55.578Z,1.25
2018-08-19T12:30:25.231Z,1.40
2018-08-19T12:33:04.779Z,1.60
2018-08-19T12:35:34.533Z,1.30
2018-08-19T12:38:04.209Z,1.40
2018-08-19T12:40:36.705Z,1.30
2018-08-19T12:43:06.716Z,1.20
2018-08-19T12:45:36.415Z,1.30
2018-08-19T12:48:06.448Z,1.22
2018-08-19T12:50:36.185Z,1.30
2018-08-19T12:53:06.455Z,1.45
2018-08-19T12:55:36.122Z,1.07
2018-08-19T12:58:09.156Z,1.17
2018-08-19T13:00:38.776Z,1.10
2018-08-19T13:03:08.520Z,1.02
2018-08-19T13:06:09.227Z,1.40
2018-08-19T13:08:38.939Z,1.30
2018-08-19T13:11:08.643Z,1.30
2018-08-19T13:13:38.350Z,1.25
2018-08-19T13:16:08.076Z,1.20
2018-08-19T13:18:41.425Z,1.10
2018-08-19T13:21:15.508Z,1.50
2018-08-19T13:23:45.227Z,1.10
2018-08-19T13:26:14.928Z,1.10
2018-08-19T13:28:48.503Z,1.32
2018-08-19T13:31:22.547Z,1.30
2018-08-19T13:33:52.335Z,1.20
2018-08-19T13:36:22.043Z,1.35
2018-08-19T13:38:51.717Z,0.95
2018-08-19T13:41:21.459Z,0.93
2018-08-19T13:43:51.102Z,1.35
2018-08-19T13:46:20.839Z,0.93
2018-08-19T13:48:50.559Z,1.00
2018-08-19T13:51:20.212Z,1.05
2018-08-19T13:53:49.913Z,1.00
2018-08-19T13:56:19.635Z,1.10
2018-08-19T13:58:49.291Z,1.05
2018-08-19T14:01:18.959Z,1.20
2018-08-19T14:03:48.622Z,1.52
2018-08-19T14:06:18.331Z,1.00
2018-08-19T14:08:47.995Z,1.05
2018-08-19T14:11:17.692Z,1.02
2018-08-19T14:13:47.396Z,1.07
2018-08-19T14:16:17.114Z,1.05
2018-08-19T14:18:46.756Z,0.88
2018-08-19T14:21:16.693Z,1.10
2018-08-19T14:23:46.388Z,1.22
2018-08-19T14:26:16.070Z,1.27
2018-08-19T14:28:45.783Z,0.98
2018-08-19T14:31:15.459Z,0.90
2018-08-19T14:33:45.157Z,1.17
2018-08-19T14:36:14.880Z,1.30
2018-08-19T14:38:44.718Z,1.25
2018-08-19T14:41:14.417Z,1.20
2018-08-19T14:43:58.679Z,1.35
2018-08-19T14:46:29.355Z,1.20
2018-08-19T14:49:03.219Z,1.32
2018-08-19T14:52:02.018Z,1.30
2018-08-19T14:54:31.680Z,1.27
2018-08-19T14:57:01.367Z,1.50
2018-08-19T14:59:31.080Z,1.60
2018-08-19T15:02:00.740Z,1.60
2018-08-19T15:04:30.459Z,1.40
2018-08-19T15:07:00.091Z,1.20
2018-08-19T15:09:31.438Z,1.47
2018-08-19T15:12:35.088Z,1.05
2018-08-19T15:15:04.864Z,1.20
2018-08-19T15:17:34.520Z,1.50
2018-08-19T15:20:04.347Z,1.27
2018-08-19T15:22:34.044Z,1.30
2018-08-19T15:25:03.707Z,1.20
2018-08-19T15:27:39.044Z,1.40
2018-08-19T15:30:10.247Z,1.50
2018-08-19T15:32:40.270Z,1.40
2018-08-19T15:35:09.588Z,1.12
2018-08-19T15:37:39.308Z,1.22
2018-08-19T15:40:09.023Z,1.42
2018-08-19T15:42:38.667Z,1.90
2018-08-19T15:45:08.403Z,1.27
2018-08-19T15:47:38.088Z,1.27
2018-08-19T15:50:16.864Z,1.07
2018-08-19T15:52:46.669Z,1.65
2018-08-19T15:55:16.408Z,1.20
2018-08-19T15:57:46.088Z,1.75
2018-08-19T16:00:15.768Z,1.45
2018-08-19T16:02:45.459Z,1.27
2018-08-19T16:05:16.488Z,1.92
2018-08-19T16:07:47.121Z,1.90
2018-08-19T16:10:17.176Z,1.70
2018-08-19T16:12:51.063Z,5.22
2018-08-19T16:15:24.771Z,6.35
2018-08-19T16:17:55.818Z,5.03
2018-08-19T16:20:25.847Z,4.95
2018-08-19T16:22:55.807Z,1.77
2018-08-19T16:25:25.499Z,1.80
2018-08-19T16:27:55.227Z,2.10
2018-08-19T16:30:24.892Z,2.25
2018-08-19T16:32:54.560Z,2.00
2018-08-19T16:35:24.254Z,2.08
2018-08-19T16:37:53.934Z,2.50
2018-08-19T16:40:23.670Z,2.62
2018-08-19T16:42:53.403Z,2.47
2018-08-19T16:45:23.096Z,2.70
2018-08-19T16:47:52.759Z,2.30
2018-08-19T16:50:22.595Z,2.65
2018-08-19T16:52:52.191Z,3.05
2018-08-19T16:55:21.835Z,3.10
2018-08-19T16:57:51.503Z,3.37
2018-08-19T17:00:21.188Z,3.45
2018-08-19T17:02:50.921Z,3.10
2018-08-19T17:05:28.451Z,4.05
2018-08-19T17:07:58.320Z,7.40
2018-08-19T17:10:29.280Z,5.65
2018-08-19T17:12:59.395Z,3.60
2018-08-19T17:15:29.644Z,3.40
2018-08-19T17:17:59.744Z,3.12
2018-08-19T17:20:29.464Z,3.08
2018-08-19T17:22:59.096Z,3.42
2018-08-19T17:25:28.823Z,3.85
2018-08-19T17:28:05.356Z,3.77
2018-08-19T17:30:35.000Z,3.55
2018-08-19T17:33:08.754Z,3.75
2018-08-19T17:35:39.776Z,4.10
2018-08-19T17:38:09.472Z,3.62
2018-08-19T17:40:39.169Z,3.58
2018-08-19T17:43:09.711Z,4.65
2018-08-19T17:45:39.468Z,4.30
2018-08-19T17:48:09.104Z,4.70
2018-08-19T17:50:39.520Z,4.22
2018-08-19T17:53:09.216Z,4.50
2018-08-19T17:55:38.887Z,4.65
2018-08-19T17:58:08.549Z,4.55
2018-08-19T18:00:38.248Z,4.47
2018-08-19T18:03:07.909Z,5.45
2018-08-19T18:05:37.714Z,5.00
2018-08-19T18:08:07.395Z,5.95
2018-08-19T18:10:38.167Z,5.60
2018-08-19T18:13:07.875Z,6.25
2018-08-19T18:15:37.592Z,4.53
2018-08-19T18:18:07.288Z,4.67
2018-08-19T18:20:38.676Z,5.05
2018-08-19T18:23:19.061Z,4.87
2018-08-19T18:25:49.520Z,6.70
2018-08-19T18:28:23.540Z,8.68
2018-08-19T18:31:09.865Z,5.78
2018-08-19T18:34:02.304Z,7.42
2018-08-19T18:36:33.739Z,5.70
2018-08-19T18:39:05.608Z,5.37
2018-08-19T18:41:39.689Z,5.35
2018-08-19T18:44:11.491Z,5.20
2018-08-19T18:46:41.255Z,5.53
2018-08-19T18:49:15.099Z,5.25
2018-08-19T18:51:47.658Z,5.50
2018-08-19T18:54:26.672Z,5.42
2018-08-19T18:56:56.337Z,5.37
2018-08-19T18:59:25.995Z,5.30
2018-08-19T19:01:58.412Z,5.10
2018-08-19T19:04:28.383Z,5.10
2018-08-19T19:06:58.192Z,5.62
2018-08-19T19:09:51.852Z,5.87
2018-08-19T19:12:22.993Z,5.33
2018-08-19T19:14:52.708Z,5.40
2018-08-19T19:17:22.415Z,5.72
2018-08-19T19:19:52.179Z,5.47
2018-08-19T19:22:21.856Z,5.83
2018-08-19T19:24:52.929Z,5.83
2018-08-19T19:27:22.644Z,5.47
2018-08-19T19:29:57.532Z,6.15
2018-08-19T19:32:27.229Z,5.90
2018-08-19T19:35:00.062Z,5.83
2018-08-19T19:37:29.755Z,6.05
2018-08-19T19:40:03.527Z,6.00
2018-08-19T19:42:33.282Z,5.83
2018-08-19T19:45:03.394Z,6.42
2018-08-19T19:47:33.264Z,6.28
2018-08-19T19:50:03.316Z,6.22
2018-08-19T19:52:32.908Z,6.22
2018-08-19T19:55:02.667Z,6.00
2018-08-19T19:57:32.426Z,6.25
2018-08-19T20:00:02.140Z,5.92
2018-08-19T20:02:32.693Z,6.17
2018-08-19T20:05:09.257Z,5.85
2018-08-19T20:07:39.048Z,5.87
2018-08-19T20:10:13.235Z,6.47
2018-08-19T20:12:42.952Z,6.33
2018-08-19T20:15:12.764Z,5.65
2018-08-19T20:17:42.476Z,6.50
2018-08-19T20:20:12.221Z,5.42
2018-08-19T20:22:41.923Z,6.35
2018-08-19T20:25:11.708Z,5.60
2018-08-19T20:27:41.573Z,5.85
2018-08-19T20:30:11.519Z,5.83
2018-08-19T20:32:41.427Z,5.83
2018-08-19T20:35:11.176Z,6.42
2018-08-19T20:37:40.903Z,6.75
2018-08-19T20:40:10.861Z,6.30
2018-08-19T20:42:40.672Z,6.85
2018-08-19T20:45:10.634Z,6.05
2018-08-19T20:47:41.482Z,6.00
2018-08-19T20:50:11.203Z,6.05
2018-08-19T20:52:46.454Z,5.72
2018-08-19T20:55:16.394Z,6.10
2018-08-19T20:57:46.387Z,6.28
2018-08-19T21:00:16.179Z,6.03
2018-08-19T21:02:45.864Z,6.28
2018-08-19T21:05:15.554Z,6.22
2018-08-19T21:07:45.256Z,6.10
2018-08-19T21:10:14.939Z,5.87
2018-08-19T21:12:44.700Z,6.25
2018-08-19T21:15:14.760Z,6.12
2018-08-19T21:17:44.441Z,5.85
2018-08-19T21:20:15.086Z,6.00
2018-08-19T21:22:44.772Z,5.95
2018-08-19T21:25:14.436Z,6.10
2018-08-19T21:27:44.206Z,6.15
2018-08-19T21:30:13.953Z,6.10
2018-08-19T21:32:43.718Z,6.53
2018-08-19T21:35:13.503Z,6.70
2018-08-19T21:37:43.616Z,6.35
2018-08-19T21:40:13.352Z,6.40
2018-08-19T21:42:50.258Z,6.17
2018-08-19T21:45:19.961Z,6.10
2018-08-19T21:47:49.645Z,6.37
2018-08-19T21:50:19.371Z,5.95
2018-08-19T21:53:00.475Z,5.90
2018-08-19T21:55:34.276Z,5.90
2018-08-19T21:58:04.460Z,6.28
2018-08-19T22:00:44.060Z,6.55
2018-08-19T22:03:20.688Z,6.57
2018-08-19T22:05:51.758Z,6.40
2018-08-19T22:08:22.924Z,6.43
2018-08-19T22:10:52.699Z,6.63
2018-08-19T22:13:22.419Z,5.77
2018-08-19T22:15:52.071Z,6.33
2018-08-19T22:18:23.041Z,6.57
2018-08-19T22:21:04.419Z,5.80
2018-08-19T22:23:39.224Z,6.13
2018-08-19T22:26:09.891Z,5.80
2018-08-19T22:28:39.959Z,6.17
2018-08-19T22:31:21.271Z,6.23
2018-08-19T22:33:57.203Z,6.10
2018-08-19T22:36:27.104Z,6.20
2018-08-19T22:38:57.684Z,6.17
2018-08-19T22:41:31.897Z,5.90
2018-08-19T22:44:01.673Z,5.93
2018-08-19T22:46:31.419Z,6.73
2018-08-19T22:49:01.140Z,6.33
2018-08-19T22:51:32.336Z,6.43
2018-08-19T22:54:02.031Z,5.93
2018-08-19T22:56:31.716Z,6.20
2018-08-19T22:59:01.420Z,6.30
2018-08-19T23:01:36.228Z,6.17
2018-08-19T23:04:06.018Z,6.27
2018-08-19T23:06:35.699Z,6.20
2018-08-19T23:09:06.793Z,6.37
2018-08-19T23:11:41.568Z,6.17
2018-08-19T23:14:22.291Z,6.80
2018-08-19T23:16:51.986Z,6.50
2018-08-19T23:19:22.180Z,7.37
2018-08-19T23:21:52.130Z,6.43
2018-08-19T23:24:21.786Z,6.50
2018-08-19T23:26:51.455Z,7.20
2018-08-19T23:29:21.128Z,6.50
2018-08-19T23:31:50.767Z,6.47
2018-08-19T23:34:20.635Z,6.43
2018-08-19T23:36:50.288Z,6.17
2018-08-19T23:39:19.947Z,7.17
2018-08-19T23:41:49.694Z,6.10
2018-08-19T23:44:19.391Z,6.40
2018-08-19T23:46:49.094Z,6.40
2018-08-19T23:49:18.772Z,6.10
2018-08-19T23:51:48.447Z,6.70
2018-08-19T23:54:18.095Z,6.50
2018-08-19T23:56:47.805Z,6.80
2018-08-19T23:59:21.554Z,6.43
